createdAt,value
2024-01-16T00:01:23.387Z,0.80
2024-01-16T00:03:51.166Z,0.80
2024-01-16T00:06:18.443Z,0.90
2024-01-16T00:08:46.184Z,1.00
2024-01-16T00:11:13.483Z,1.00
2024-01-16T00:13:40.686Z,1.10
2024-01-16T00:16:07.844Z,1.20
2024-01-16T00:18:36.348Z,1.40
2024-01-16T00:21:04.203Z,1.40
2024-01-16T00:23:33.716Z,1.40
2024-01-16T00:26:01.346Z,1.40
2024-01-16T00:28:29.115Z,1.40
2024-01-16T00:30:56.434Z,1.40
2024-01-16T00:33:23.740Z,1.40
2024-01-16T00:35:51.335Z,1.40
2024-01-16T00:38:21.821Z,1.40
2024-01-16T00:40:49.284Z,1.30
2024-01-16T00:43:16.999Z,1.20
2024-01-16T00:45:44.391Z,1.20
2024-01-16T00:48:14.849Z,1.10
2024-01-16T00:50:42.839Z,1.00
2024-01-16T00:53:10.081Z,1.00
2024-01-16T00:55:39.852Z,1.00
2024-01-16T00:58:07.127Z,1.00
2024-01-16T01:00:36.459Z,0.80
2024-01-16T01:03:05.055Z,0.80
2024-01-16T01:05:32.513Z,0.80
2024-01-16T01:08:00.117Z,0.60
2024-01-16T01:10:27.372Z,0.60
2024-01-16T01:12:54.749Z,0.60
2024-01-16T01:15:22.470Z,0.60
2024-01-16T01:17:53.367Z,0.60
2024-01-16T01:20:21.149Z,0.50
2024-01-16T01:22:48.842Z,0.50
2024-01-16T01:25:16.424Z,0.50
2024-01-16T01:27:43.871Z,0.50
2024-01-16T01:30:12.705Z,0.50
2024-01-16T01:32:41.045Z,0.50
2024-01-16T01:35:10.956Z,0.50
2024-01-16T01:37:40.785Z,0.50
2024-01-16T01:40:09.344Z,0.50
2024-01-16T01:42:36.612Z,0.50
2024-01-16T01:45:04.474Z,0.60
2024-01-16T01:47:34.808Z,0.60
2024-01-16T01:50:04.888Z,0.70
2024-01-16T01:52:33.401Z,0.80
2024-01-16T01:55:04.280Z,0.80
2024-01-16T01:57:31.672Z,0.80
2024-01-16T01:59:58.912Z,0.90
2024-01-16T02:02:29.367Z,1.00
2024-01-16T02:04:57.490Z,1.00
2024-01-16T02:07:24.916Z,1.00
2024-01-16T02:09:52.411Z,1.00
2024-01-16T02:12:21.208Z,1.00
2024-01-16T02:14:49.657Z,1.00
2024-01-16T02:17:16.834Z,1.00
2024-01-16T02:19:44.057Z,1.00
2024-01-16T02:22:17.673Z,1.00
2024-01-16T02:24:45.354Z,1.00
2024-01-16T02:27:12.621Z,1.10
2024-01-16T02:29:46.652Z,1.00
2024-01-16T02:32:15.783Z,1.00
2024-01-16T02:34:43.187Z,1.00
2024-01-16T02:37:10.437Z,1.00
2024-01-16T02:39:38.163Z,0.90
2024-01-16T02:42:06.041Z,0.90
2024-01-16T02:44:34.069Z,0.80
2024-01-16T02:47:01.787Z,0.80
2024-01-16T02:49:29.693Z,0.80
2024-01-16T02:51:58.381Z,0.80
2024-01-16T02:54:25.941Z,0.80
2024-01-16T02:56:53.934Z,0.70
2024-01-16T02:59:21.239Z,0.80
2024-01-16T03:01:48.929Z,0.80
2024-01-16T03:04:17.194Z,0.80
2024-01-16T03:06:47.533Z,0.80
2024-01-16T03:09:15.513Z,0.80
2024-01-16T03:11:42.844Z,0.80
2024-01-16T03:14:10.850Z,0.80
2024-01-16T03:16:38.572Z,0.80
2024-01-16T03:19:05.875Z,0.80
2024-01-16T03:21:33.475Z,0.80
2024-01-16T03:24:00.925Z,0.80
2024-01-16T03:26:28.523Z,0.80
2024-01-16T03:28:55.936Z,0.80
2024-01-16T03:31:23.385Z,0.80
2024-01-16T03:33:51.529Z,0.80
2024-01-16T03:36:19.553Z,0.80
2024-01-16T03:38:47.015Z,0.90
2024-01-16T03:41:14.559Z,1.00
2024-01-16T03:43:42.286Z,1.00
2024-01-16T03:46:13.000Z,1.00
2024-01-16T03:48:41.103Z,1.00
2024-01-16T03:51:08.642Z,1.00
2024-01-16T03:53:35.864Z,1.00
2024-01-16T03:56:05.532Z,1.00
2024-01-16T03:58:33.411Z,1.00
2024-01-16T04:01:03.371Z,1.00
2024-01-16T04:03:30.676Z,0.90
2024-01-16T04:05:58.036Z,0.90
2024-01-16T04:08:25.414Z,0.80
2024-01-16T04:10:52.747Z,0.80
2024-01-16T04:13:22.117Z,0.80
2024-01-16T04:15:49.747Z,0.90
2024-01-16T04:18:17.063Z,0.90
2024-01-16T04:20:44.430Z,0.90
2024-01-16T04:23:13.008Z,0.90
2024-01-16T04:25:40.617Z,0.90
2024-01-16T04:28:07.809Z,1.00
2024-01-16T04:30:34.978Z,1.00
2024-01-16T04:33:02.379Z,1.00
2024-01-16T04:35:29.721Z,1.00
2024-01-16T04:37:57.160Z,1.00
2024-01-16T04:40:24.396Z,1.00
2024-01-16T04:42:51.594Z,1.10
2024-01-16T04:45:18.847Z,1.20
2024-01-16T04:47:46.289Z,1.20
2024-01-16T04:50:13.702Z,1.20
2024-01-16T04:52:40.940Z,1.20
2024-01-16T04:55:08.729Z,1.20
2024-01-16T04:57:36.067Z,1.20
2024-01-16T05:00:08.371Z,1.20
2024-01-16T05:02:35.921Z,1.20
2024-01-16T05:05:03.582Z,1.20
2024-01-16T05:07:30.828Z,1.10
2024-01-16T05:10:01.141Z,1.10
2024-01-16T05:12:28.407Z,1.10
2024-01-16T05:14:55.680Z,1.10
2024-01-16T05:17:23.228Z,1.00
2024-01-16T05:19:51.927Z,1.00
2024-01-16T05:22:19.109Z,1.00
2024-01-16T05:24:46.380Z,1.00
2024-01-16T05:27:13.757Z,1.00
2024-01-16T05:29:44.621Z,1.00
2024-01-16T05:32:15.526Z,1.00
2024-01-16T05:34:42.842Z,1.00
2024-01-16T05:37:10.040Z,1.00
2024-01-16T05:39:46.022Z,1.00
2024-01-16T05:42:13.558Z,1.00
2024-01-16T05:44:41.448Z,1.10
2024-01-16T05:47:11.776Z,1.00
2024-01-16T05:49:39.222Z,1.10
2024-01-16T05:52:06.793Z,1.10
2024-01-16T05:54:34.109Z,1.10
2024-01-16T05:57:01.384Z,1.10
2024-01-16T05:59:28.662Z,1.10
2024-01-16T06:01:55.945Z,1.20
2024-01-16T06:04:23.250Z,1.20
2024-01-16T06:06:50.508Z,1.20
2024-01-16T06:09:17.968Z,1.20
2024-01-16T06:11:45.212Z,1.20
2024-01-16T06:14:13.920Z,1.20
2024-01-16T06:16:41.244Z,1.20
2024-01-16T06:19:09.401Z,1.20
2024-01-16T06:21:36.704Z,1.20
2024-01-16T06:24:04.038Z,1.20
2024-01-16T06:26:31.254Z,1.20
2024-01-16T06:28:58.426Z,1.20
2024-01-16T06:31:27.377Z,1.20
2024-01-16T06:33:54.694Z,1.10
2024-01-16T06:36:21.945Z,1.10
2024-01-16T06:38:49.091Z,1.10
2024-01-16T06:41:16.247Z,1.10
2024-01-16T06:43:44.437Z,1.00
2024-01-16T06:46:11.792Z,1.00
2024-01-16T06:48:39.418Z,1.00
2024-01-16T06:51:08.980Z,1.00
2024-01-16T06:53:39.214Z,1.00
2024-01-16T06:56:09.599Z,1.00
2024-01-16T06:58:37.130Z,1.00
2024-01-16T07:01:05.320Z,1.00
2024-01-16T07:03:32.460Z,1.00
2024-01-16T07:05:59.737Z,1.00
2024-01-16T07:08:27.120Z,1.00
2024-01-16T07:10:54.624Z,1.00
2024-01-16T07:13:21.920Z,0.90
2024-01-16T07:15:49.832Z,0.90
2024-01-16T07:18:17.118Z,0.80
2024-01-16T07:20:44.426Z,0.80
2024-01-16T07:23:11.538Z,0.80
2024-01-16T07:25:38.653Z,0.80
2024-01-16T07:28:05.799Z,0.80
2024-01-16T07:30:33.009Z,0.80
2024-01-16T07:33:00.397Z,1.00
2024-01-16T07:35:27.669Z,1.00
2024-01-16T07:37:54.768Z,1.00
2024-01-16T07:40:21.972Z,0.90
2024-01-16T07:42:49.121Z,0.80
2024-01-16T07:45:16.251Z,0.80
2024-01-16T07:47:43.482Z,0.70
2024-01-16T07:50:11.498Z,0.60
2024-01-16T07:52:38.715Z,0.60
2024-01-16T07:55:06.195Z,0.60
2024-01-16T07:57:33.382Z,0.60
2024-01-16T08:00:00.578Z,0.60
2024-01-16T08:02:35.493Z,0.60
2024-01-16T08:05:02.798Z,0.60
2024-01-16T08:07:30.020Z,0.60
2024-01-16T08:09:57.405Z,0.60
2024-01-16T08:12:24.848Z,0.60
2024-01-16T08:14:52.219Z,0.60
2024-01-16T08:17:19.792Z,0.60
2024-01-16T08:19:47.051Z,0.60
2024-01-16T08:22:14.260Z,0.60
2024-01-16T08:24:41.490Z,0.60
2024-01-16T08:27:08.688Z,0.60
2024-01-16T08:29:35.873Z,0.50
2024-01-16T08:32:03.116Z,0.50
2024-01-16T08:34:30.463Z,0.50
2024-01-16T08:36:58.397Z,0.50
2024-01-16T08:39:25.907Z,0.50
2024-01-16T08:41:53.313Z,0.50
2024-01-16T08:44:20.565Z,0.40
2024-01-16T08:46:47.724Z,0.50
2024-01-16T08:49:17.939Z,0.50
2024-01-16T08:51:47.139Z,0.50
2024-01-16T08:54:14.284Z,0.50
2024-01-16T08:56:41.509Z,0.60
2024-01-16T08:59:09.506Z,0.60
2024-01-16T09:01:36.779Z,0.60
2024-01-16T09:04:04.977Z,0.70
2024-01-16T09:06:32.428Z,0.80
2024-01-16T09:08:59.715Z,0.80
2024-01-16T09:11:27.013Z,0.80
2024-01-16T09:13:54.150Z,0.80
2024-01-16T09:16:21.285Z,0.80
2024-01-16T09:18:48.609Z,0.80
2024-01-16T09:21:16.246Z,0.60
2024-01-16T09:23:43.712Z,0.60
2024-01-16T09:26:11.938Z,0.60
2024-01-16T09:28:40.229Z,0.50
2024-01-16T09:31:08.049Z,0.50
2024-01-16T09:33:36.114Z,0.40
2024-01-16T09:36:03.556Z,0.40
2024-01-16T09:38:32.284Z,0.40
2024-01-16T09:41:00.520Z,0.40
2024-01-16T09:43:33.050Z,0.50
2024-01-16T09:46:03.678Z,0.50
2024-01-16T09:48:33.398Z,0.50
2024-01-16T09:51:01.228Z,0.60
2024-01-16T09:53:28.610Z,0.60
2024-01-16T09:56:03.129Z,0.60
2024-01-16T09:58:35.649Z,0.60
2024-01-16T10:01:03.292Z,0.60
2024-01-16T10:03:33.127Z,0.60
2024-01-16T10:06:02.522Z,0.60
2024-01-16T10:08:32.971Z,0.60
2024-01-16T10:11:00.996Z,0.60
2024-01-16T10:13:28.485Z,0.60
2024-01-16T10:15:56.819Z,0.60
2024-01-16T10:18:32.384Z,0.60
2024-01-16T10:20:59.944Z,0.60
2024-01-16T10:23:34.090Z,0.50
2024-01-16T10:26:12.789Z,0.50
2024-01-16T10:28:42.705Z,0.50
2024-01-16T10:31:13.021Z,0.40
2024-01-16T10:33:41.289Z,0.40
2024-01-16T10:36:22.061Z,0.40
2024-01-16T10:38:49.702Z,0.40
2024-01-16T10:41:20.749Z,0.40
2024-01-16T10:43:48.203Z,0.40
2024-01-16T10:46:18.063Z,0.50
2024-01-16T10:49:04.026Z,0.50
2024-01-16T10:51:34.155Z,0.60
2024-01-16T10:54:12.334Z,0.60
2024-01-16T10:56:46.501Z,0.60
2024-01-16T10:59:36.365Z,0.50
2024-01-16T11:02:05.424Z,0.50
2024-01-16T11:04:33.408Z,0.40
2024-01-16T11:07:05.640Z,0.40
2024-01-16T11:09:34.167Z,0.30
2024-01-16T11:12:02.681Z,0.30
2024-01-16T11:14:34.480Z,0.40
2024-01-16T11:17:04.354Z,0.40
2024-01-16T11:19:48.287Z,0.40
2024-01-16T11:22:22.503Z,0.40
2024-01-16T11:25:15.971Z,0.50
2024-01-16T11:27:49.176Z,0.50
2024-01-16T11:30:32.638Z,0.60
2024-01-16T11:33:01.734Z,0.60
2024-01-16T11:35:37.926Z,0.60
2024-01-16T11:38:12.615Z,0.60
2024-01-16T11:40:39.850Z,0.60
2024-01-16T11:43:35.164Z,0.60
2024-01-16T11:46:11.359Z,0.70
2024-01-16T11:48:40.736Z,0.70
2024-01-16T11:51:26.221Z,0.80
2024-01-16T11:53:53.656Z,0.80
2024-01-16T11:56:31.016Z,0.90
2024-01-16T11:59:35.400Z,1.00
2024-01-16T12:02:22.435Z,1.10
2024-01-16T12:04:57.858Z,1.30
2024-01-16T12:07:25.370Z,1.40
2024-01-16T12:09:52.656Z,1.50
2024-01-16T12:12:22.314Z,1.60
2024-01-16T12:14:56.401Z,1.60
2024-01-16T12:17:23.949Z,1.70
2024-01-16T12:19:51.677Z,1.60
2024-01-16T12:22:26.086Z,1.70
2024-01-16T12:25:00.061Z,1.70
2024-01-16T12:27:27.634Z,1.70
2024-01-16T12:30:09.650Z,1.80
2024-01-16T12:32:38.337Z,1.90
2024-01-16T12:35:08.996Z,2.00
2024-01-16T12:37:39.318Z,2.00
2024-01-16T12:40:09.436Z,2.20
2024-01-16T12:42:39.344Z,2.20
2024-01-16T12:45:11.821Z,2.30
2024-01-16T12:47:39.336Z,2.40
2024-01-16T12:50:07.605Z,2.50
2024-01-16T12:52:35.147Z,2.50
2024-01-16T12:55:07.397Z,2.50
2024-01-16T12:57:35.545Z,2.40
2024-01-16T13:00:05.962Z,2.50
2024-01-16T13:02:34.689Z,2.40
2024-01-16T13:05:04.568Z,2.40
2024-01-16T13:07:34.005Z,2.30
2024-01-16T13:10:13.444Z,2.20
2024-01-16T13:12:41.202Z,2.10
2024-01-16T13:15:09.143Z,2.10
2024-01-16T13:17:37.134Z,2.00
2024-01-16T13:20:08.401Z,2.00
2024-01-16T13:22:43.420Z,1.90
2024-01-16T13:25:13.569Z,1.90
2024-01-16T13:27:40.752Z,1.80
2024-01-16T13:30:09.077Z,1.80
2024-01-16T13:32:38.674Z,1.90
2024-01-16T13:35:10.245Z,2.10
2024-01-16T13:37:42.240Z,2.30
2024-01-16T13:40:17.147Z,2.50
2024-01-16T13:42:44.733Z,2.50
2024-01-16T13:45:14.882Z,2.50
2024-01-16T13:47:46.099Z,2.40
2024-01-16T13:50:15.700Z,2.40
2024-01-16T13:52:43.019Z,2.30
2024-01-16T13:55:11.205Z,2.20
2024-01-16T13:57:43.124Z,2.10
2024-01-16T14:00:17.075Z,2.10
2024-01-16T14:02:49.267Z,2.00
2024-01-16T14:05:19.869Z,1.90
2024-01-16T14:07:54.154Z,1.80
2024-01-16T14:10:26.196Z,1.80
2024-01-16T14:12:54.112Z,1.70
2024-01-16T14:15:26.673Z,1.70
2024-01-16T14:17:58.031Z,1.70
2024-01-16T14:20:29.643Z,1.70
2024-01-16T14:22:58.892Z,1.70
2024-01-16T14:25:26.121Z,1.70
2024-01-16T14:28:07.768Z,1.70
2024-01-16T14:30:37.110Z,1.70
2024-01-16T14:33:14.013Z,1.60
2024-01-16T14:35:42.030Z,1.60
2024-01-16T14:38:09.312Z,1.50
2024-01-16T14:40:36.635Z,1.40
2024-01-16T14:43:06.572Z,1.30
2024-01-16T14:45:33.968Z,1.20
2024-01-16T14:48:01.429Z,1.20
2024-01-16T14:50:31.505Z,1.20
2024-01-16T14:53:00.051Z,1.20
2024-01-16T14:55:27.810Z,1.20
2024-01-16T14:58:01.059Z,1.20
2024-01-16T15:00:28.484Z,1.20
2024-01-16T15:02:55.676Z,1.20
2024-01-16T15:05:24.161Z,1.20
2024-01-16T15:07:55.190Z,1.20
2024-01-16T15:10:22.551Z,1.20
2024-01-16T15:12:50.063Z,1.20
2024-01-16T15:15:17.514Z,1.20
2024-01-16T15:17:45.916Z,1.20
2024-01-16T15:20:13.652Z,1.20
2024-01-16T15:22:47.239Z,1.20
2024-01-16T15:25:17.598Z,1.10
2024-01-16T15:27:49.136Z,1.10
2024-01-16T15:30:16.704Z,1.00
2024-01-16T15:32:44.127Z,1.00
2024-01-16T15:35:12.544Z,1.00
2024-01-16T15:37:40.049Z,0.90
2024-01-16T15:40:08.449Z,0.80
2024-01-16T15:42:40.448Z,0.80
2024-01-16T15:45:10.596Z,0.80
2024-01-16T15:47:38.071Z,0.80
2024-01-16T15:50:06.744Z,0.80
2024-01-16T15:52:34.272Z,0.80
2024-01-16T15:55:02.551Z,0.80
2024-01-16T15:57:30.253Z,0.80
2024-01-16T15:59:57.664Z,0.80
2024-01-16T16:02:25.132Z,0.80
2024-01-16T16:04:52.298Z,0.80
2024-01-16T16:07:19.577Z,0.80
2024-01-16T16:09:46.821Z,0.70
2024-01-16T16:12:15.007Z,0.60
2024-01-16T16:14:43.478Z,0.60
2024-01-16T16:17:10.560Z,0.60
2024-01-16T16:19:38.002Z,0.60
2024-01-16T16:22:06.247Z,0.50
2024-01-16T16:24:34.665Z,0.50
2024-01-16T16:27:01.902Z,0.50
2024-01-16T16:29:29.117Z,0.50
2024-01-16T16:31:57.904Z,0.50
2024-01-16T16:34:25.589Z,0.50
2024-01-16T16:36:52.959Z,0.50
2024-01-16T16:39:23.608Z,0.50
2024-01-16T16:41:51.572Z,0.60
2024-01-16T16:44:18.799Z,0.60
2024-01-16T16:46:45.954Z,0.60
2024-01-16T16:49:13.234Z,0.60
2024-01-16T16:51:43.318Z,0.60
2024-01-16T16:54:12.069Z,0.70
2024-01-16T16:56:41.504Z,0.80
2024-01-16T16:59:08.815Z,0.80
2024-01-16T17:01:39.320Z,0.80
2024-01-16T17:04:07.868Z,0.80
2024-01-16T17:06:35.519Z,0.80
2024-01-16T17:09:03.124Z,0.80
2024-01-16T17:11:30.535Z,0.80
2024-01-16T17:13:57.936Z,0.80
2024-01-16T17:16:29.669Z,0.80
2024-01-16T17:18:56.995Z,0.80
2024-01-16T17:21:24.535Z,0.80
2024-01-16T17:23:51.937Z,0.70
2024-01-16T17:26:19.889Z,0.60
2024-01-16T17:28:47.199Z,0.60
2024-01-16T17:31:14.500Z,0.60
2024-01-16T17:33:44.230Z,0.60
2024-01-16T17:36:12.536Z,0.50
2024-01-16T17:38:43.010Z,0.50
2024-01-16T17:41:12.160Z,0.50
2024-01-16T17:43:40.143Z,0.40
2024-01-16T17:46:07.947Z,0.40
2024-01-16T17:48:35.543Z,0.40
2024-01-16T17:51:03.086Z,0.40
2024-01-16T17:53:30.403Z,0.40
2024-01-16T17:55:57.770Z,0.40
2024-01-16T17:58:26.910Z,0.40
2024-01-16T18:00:54.489Z,0.40
2024-01-16T18:03:32.597Z,0.40
2024-01-16T18:06:09.050Z,0.30
2024-01-16T18:08:41.188Z,0.30
2024-01-16T18:11:08.834Z,0.30
2024-01-16T18:13:38.635Z,0.30
2024-01-16T18:16:07.996Z,0.30
2024-01-16T18:18:35.397Z,0.30
2024-01-16T18:21:03.017Z,0.30
2024-01-16T18:23:30.517Z,0.30
2024-01-16T18:26:00.638Z,0.30
2024-01-16T18:28:29.084Z,0.20
2024-01-16T18:30:57.731Z,0.20
2024-01-16T18:33:25.450Z,0.20
2024-01-16T18:35:58.824Z,0.20
2024-01-16T18:38:28.461Z,0.10
2024-01-16T18:41:00.200Z,0.00
2024-01-16T18:43:29.084Z,0.00
2024-01-16T18:45:57.675Z,0.00
2024-01-16T18:48:25.258Z,0.00
2024-01-16T18:50:55.547Z,0.00
2024-01-16T18:53:23.195Z,-0.10
2024-01-16T18:55:53.466Z,-0.10
2024-01-16T18:58:22.178Z,-0.10
2024-01-16T19:00:52.872Z,-0.10
2024-01-16T19:03:20.678Z,-0.10
2024-01-16T19:05:48.474Z,-0.10
2024-01-16T19:08:25.051Z,-0.10
2024-01-16T19:10:53.412Z,-0.10
2024-01-16T19:13:25.025Z,0.00
2024-01-16T19:15:53.326Z,0.00
2024-01-16T19:18:20.855Z,0.00
2024-01-16T19:20:48.318Z,0.00
2024-01-16T19:23:15.688Z,0.00
2024-01-16T19:25:43.007Z,0.00
2024-01-16T19:28:10.376Z,0.00
2024-01-16T19:30:37.613Z,0.10
2024-01-16T19:33:07.218Z,0.10
2024-01-16T19:35:35.945Z,0.10
2024-01-16T19:38:03.337Z,0.10
2024-01-16T19:40:30.529Z,0.10
2024-01-16T19:43:03.094Z,0.10
2024-01-16T19:45:30.895Z,0.10
2024-01-16T19:47:58.415Z,0.10
2024-01-16T19:50:25.846Z,0.10
2024-01-16T19:52:56.616Z,0.10
2024-01-16T19:55:25.534Z,0.10
2024-01-16T19:57:54.364Z,0.20
2024-01-16T20:00:21.925Z,0.20
2024-01-16T20:02:50.434Z,0.20
2024-01-16T20:05:18.222Z,0.20
2024-01-16T20:07:47.217Z,0.20
2024-01-16T20:10:18.650Z,0.20
2024-01-16T20:12:49.362Z,0.20
2024-01-16T20:15:21.697Z,0.20
2024-01-16T20:17:51.842Z,0.20
2024-01-16T20:20:20.117Z,0.20
2024-01-16T20:22:48.224Z,0.20
2024-01-16T20:25:15.838Z,0.20
2024-01-16T20:27:44.171Z,0.20
2024-01-16T20:30:14.074Z,0.20
2024-01-16T20:32:45.636Z,0.20
2024-01-16T20:35:14.384Z,0.20
2024-01-16T20:37:45.194Z,0.20
2024-01-16T20:40:12.878Z,0.10
2024-01-16T20:42:40.334Z,0.10
2024-01-16T20:45:10.393Z,0.20
2024-01-16T20:47:41.990Z,0.10
2024-01-16T20:50:11.142Z,0.10
2024-01-16T20:52:38.753Z,0.10
2024-01-16T20:55:08.390Z,0.10
2024-01-16T20:57:36.472Z,0.20
2024-01-16T21:00:14.314Z,0.20
2024-01-16T21:02:42.358Z,0.20
2024-01-16T21:05:09.958Z,0.20
2024-01-16T21:07:37.746Z,0.20
2024-01-16T21:10:05.581Z,0.20
2024-01-16T21:12:33.280Z,0.20
2024-01-16T21:15:00.747Z,0.30
2024-01-16T21:17:28.387Z,0.30
2024-01-16T21:19:55.779Z,0.30
2024-01-16T21:22:32.962Z,0.30
2024-01-16T21:25:06.004Z,0.40
2024-01-16T21:27:34.264Z,0.40
2024-01-16T21:30:02.084Z,0.40
2024-01-16T21:32:29.538Z,0.40
2024-01-16T21:34:56.712Z,0.40
2024-01-16T21:37:23.823Z,0.40
2024-01-16T21:39:51.000Z,0.40
2024-01-16T21:42:18.235Z,0.40
2024-01-16T21:44:48.964Z,0.40
2024-01-16T21:47:16.951Z,0.40
2024-01-16T21:49:48.403Z,0.40
2024-01-16T21:52:17.048Z,0.30
2024-01-16T21:54:44.203Z,0.40
2024-01-16T21:57:11.330Z,0.30
2024-01-16T21:59:38.579Z,0.30
2024-01-16T22:02:08.187Z,0.30
2024-01-16T22:04:36.959Z,0.40
2024-01-16T22:07:04.807Z,0.40
2024-01-16T22:09:32.608Z,0.40
2024-01-16T22:11:59.935Z,0.40
2024-01-16T22:14:27.185Z,0.40
2024-01-16T22:16:55.210Z,0.40
2024-01-16T22:19:23.467Z,0.50
2024-01-16T22:21:53.636Z,0.50
2024-01-16T22:24:20.855Z,0.50
2024-01-16T22:26:48.072Z,0.40
2024-01-16T22:29:15.327Z,0.40
2024-01-16T22:31:43.235Z,0.40
2024-01-16T22:34:10.765Z,0.40
2024-01-16T22:36:41.686Z,0.40
2024-01-16T22:39:17.711Z,0.40
2024-01-16T22:41:49.043Z,0.40
2024-01-16T22:44:16.840Z,0.40
2024-01-16T22:46:44.837Z,0.40
2024-01-16T22:49:13.066Z,0.40
2024-01-16T22:51:41.185Z,0.40
2024-01-16T22:54:08.493Z,0.40
2024-01-16T22:56:35.843Z,0.40
2024-01-16T22:59:04.600Z,0.40
2024-01-16T23:01:32.486Z,0.50
2024-01-16T23:04:02.429Z,0.50
2024-01-16T23:06:29.981Z,0.50
2024-01-16T23:08:58.977Z,0.50
2024-01-16T23:11:27.528Z,0.50
2024-01-16T23:13:55.856Z,0.50
2024-01-16T23:16:23.259Z,0.50
2024-01-16T23:18:50.734Z,0.50
2024-01-16T23:21:20.191Z,0.50
2024-01-16T23:23:49.235Z,0.50
2024-01-16T23:26:16.674Z,0.50
2024-01-16T23:28:44.309Z,0.50
2024-01-16T23:31:13.101Z,0.50
2024-01-16T23:33:41.545Z,0.50
2024-01-16T23:36:09.072Z,0.50
2024-01-16T23:38:39.019Z,0.50
2024-01-16T23:41:12.994Z,0.50
2024-01-16T23:43:40.190Z,0.40
2024-01-16T23:46:11.596Z,0.40
2024-01-16T23:48:39.256Z,0.40
2024-01-16T23:51:06.824Z,0.40
2024-01-16T23:53:34.049Z,0.30
2024-01-16T23:56:01.346Z,0.30
2024-01-16T23:58:28.511Z,0.30
